sensor_id;sensor_type;location;lat;lon;timestamp;temperature;humidity
27072;DHT22;14613;46.308;25.288;2023-07-02T00:00:30;18.90;69.90
27072;DHT22;14613;46.308;25.288;2023-07-02T00:02:58;18.80;70.00
27072;DHT22;14613;46.308;25.288;2023-07-02T00:05:24;18.80;70.60
27072;DHT22;14613;46.308;25.288;2023-07-02T00:07:50;18.70;70.20
27072;DHT22;14613;46.308;25.288;2023-07-02T00:10:16;18.70;70.30
27072;DHT22;14613;46.308;25.288;2023-07-02T00:12:41;18.60;70.30
27072;DHT22;14613;46.308;25.288;2023-07-02T00:15:10;18.60;70.50
27072;DHT22;14613;46.308;25.288;2023-07-02T00:17:36;18.50;70.50
27072;DHT22;14613;46.308;25.288;2023-07-02T00:20:08;18.60;70.60
27072;DHT22;14613;46.308;25.288;2023-07-02T00:22:40;18.50;70.60
27072;DHT22;14613;46.308;25.288;2023-07-02T00:25:10;18.50;70.60
27072;DHT22;14613;46.308;25.288;2023-07-02T00:27:36;18.40;70.80
27072;DHT22;14613;46.308;25.288;2023-07-02T00:30:03;18.30;71.00
27072;DHT22;14613;46.308;25.288;2023-07-02T00:32:29;18.30;71.20
27072;DHT22;14613;46.308;25.288;2023-07-02T00:34:54;18.20;71.20
27072;DHT22;14613;46.308;25.288;2023-07-02T00:37:20;18.20;71.40
27072;DHT22;14613;46.308;25.288;2023-07-02T00:39:46;18.20;71.50
27072;DHT22;14613;46.308;25.288;2023-07-02T00:42:12;18.10;71.50
27072;DHT22;14613;46.308;25.288;2023-07-02T00:44:38;18.10;71.50
27072;DHT22;14613;46.308;25.288;2023-07-02T00:47:09;18.10;71.70
27072;DHT22;14613;46.308;25.288;2023-07-02T00:49:36;18.10;71.70
27072;DHT22;14613;46.308;25.288;2023-07-02T00:52:02;18.00;71.70
27072;DHT22;14613;46.308;25.288;2023-07-02T00:54:29;18.00;71.90
27072;DHT22;14613;46.308;25.288;2023-07-02T00:56:55;18.00;72.00
27072;DHT22;14613;46.308;25.288;2023-07-02T00:59:21;17.90;72.10
27072;DHT22;14613;46.308;25.288;2023-07-02T01:01:47;17.90;72.10
27072;DHT22;14613;46.308;25.288;2023-07-02T01:04:17;17.90;72.20
27072;DHT22;14613;46.308;25.288;2023-07-02T01:06:44;17.90;72.30
27072;DHT22;14613;46.308;25.288;2023-07-02T01:09:11;17.90;72.30
27072;DHT22;14613;46.308;25.288;2023-07-02T01:11:50;17.90;72.30
27072;DHT22;14613;46.308;25.288;2023-07-02T01:14:48;17.90;72.30
27072;DHT22;14613;46.308;25.288;2023-07-02T01:17:16;17.90;72.40
27072;DHT22;14613;46.308;25.288;2023-07-02T01:19:54;17.90;72.40
27072;DHT22;14613;46.308;25.288;2023-07-02T01:22:26;17.90;72.50
27072;DHT22;14613;46.308;25.288;2023-07-02T01:24:53;17.90;72.60
27072;DHT22;14613;46.308;25.288;2023-07-02T01:27:19;17.80;72.70
27072;DHT22;14613;46.308;25.288;2023-07-02T01:29:46;17.70;72.80
27072;DHT22;14613;46.308;25.288;2023-07-02T01:32:13;17.70;72.80
27072;DHT22;14613;46.308;25.288;2023-07-02T01:34:38;17.70;72.90
27072;DHT22;14613;46.308;25.288;2023-07-02T01:37:04;17.70;72.90
27072;DHT22;14613;46.308;25.288;2023-07-02T01:39:31;17.70;72.90
27072;DHT22;14613;46.308;25.288;2023-07-02T01:42:11;17.70;72.90
27072;DHT22;14613;46.308;25.288;2023-07-02T01:44:37;17.70;73.00
27072;DHT22;14613;46.308;25.288;2023-07-02T01:47:04;17.70;72.90
27072;DHT22;14613;46.308;25.288;2023-07-02T01:49:30;17.70;73.00
27072;DHT22;14613;46.308;25.288;2023-07-02T01:51:57;17.70;73.00
27072;DHT22;14613;46.308;25.288;2023-07-02T01:54:26;17.70;73.10
27072;DHT22;14613;46.308;25.288;2023-07-02T01:56:55;17.70;73.10
27072;DHT22;14613;46.308;25.288;2023-07-02T01:59:21;17.70;73.10
27072;DHT22;14613;46.308;25.288;2023-07-02T02:01:47;17.70;73.20
27072;DHT22;14613;46.308;25.288;2023-07-02T02:04:14;17.70;73.30
27072;DHT22;14613;46.308;25.288;2023-07-02T02:06:40;17.60;73.20
27072;DHT22;14613;46.308;25.288;2023-07-02T02:09:08;17.60;73.30
27072;DHT22;14613;46.308;25.288;2023-07-02T02:11:39;17.60;73.30
27072;DHT22;14613;46.308;25.288;2023-07-02T02:14:05;17.60;73.40
27072;DHT22;14613;46.308;25.288;2023-07-02T02:16:31;17.60;73.40
27072;DHT22;14613;46.308;25.288;2023-07-02T02:18:59;17.60;73.40
27072;DHT22;14613;46.308;25.288;2023-07-02T02:21:25;17.60;73.40
27072;DHT22;14613;46.308;25.288;2023-07-02T02:23:51;17.60;73.40
27072;DHT22;14613;46.308;25.288;2023-07-02T02:26:16;17.60;73.40
27072;DHT22;14613;46.308;25.288;2023-07-02T02:28:42;17.60;73.60
27072;DHT22;14613;46.308;25.288;2023-07-02T02:31:09;17.50;73.60
27072;DHT22;14613;46.308;25.288;2023-07-02T02:33:34;17.50;73.70
27072;DHT22;14613;46.308;25.288;2023-07-02T02:36:02;17.50;73.70
27072;DHT22;14613;46.308;25.288;2023-07-02T02:38:27;17.40;73.80
27072;DHT22;14613;46.308;25.288;2023-07-02T02:40:53;17.40;74.00
27072;DHT22;14613;46.308;25.288;2023-07-02T02:43:19;17.40;74.20
27072;DHT22;14613;46.308;25.288;2023-07-02T02:45:46;17.40;74.20
27072;DHT22;14613;46.308;25.288;2023-07-02T02:48:12;17.30;74.30
27072;DHT22;14613;46.308;25.288;2023-07-02T02:50:38;17.30;74.40
27072;DHT22;14613;46.308;25.288;2023-07-02T02:53:10;17.30;74.40
27072;DHT22;14613;46.308;25.288;2023-07-02T02:55:36;17.30;74.60
27072;DHT22;14613;46.308;25.288;2023-07-02T02:58:02;17.30;74.90
27072;DHT22;14613;46.308;25.288;2023-07-02T03:00:28;17.40;75.10
27072;DHT22;14613;46.308;25.288;2023-07-02T03:02:54;17.50;75.10
27072;DHT22;14613;46.308;25.288;2023-07-02T03:05:24;17.60;75.10
27072;DHT22;14613;46.308;25.288;2023-07-02T03:07:50;17.70;75.20
27072;DHT22;14613;46.308;25.288;2023-07-02T03:10:16;17.80;75.10
27072;DHT22;14613;46.308;25.288;2023-07-02T03:12:41;18.00;75.00
27072;DHT22;14613;46.308;25.288;2023-07-02T03:15:07;18.20;75.00
27072;DHT22;14613;46.308;25.288;2023-07-02T03:17:35;18.30;74.80
27072;DHT22;14613;46.308;25.288;2023-07-02T03:20:01;18.50;74.60
27072;DHT22;14613;46.308;25.288;2023-07-02T03:22:26;18.70;74.30
27072;DHT22;14613;46.308;25.288;2023-07-02T03:24:52;18.80;74.10
27072;DHT22;14613;46.308;25.288;2023-07-02T03:27:18;18.90;74.10
27072;DHT22;14613;46.308;25.288;2023-07-02T03:29:43;19.20;74.30
27072;DHT22;14613;46.308;25.288;2023-07-02T03:32:09;19.50;74.10
27072;DHT22;14613;46.308;25.288;2023-07-02T03:34:35;19.80;73.90
27072;DHT22;14613;46.308;25.288;2023-07-02T03:37:00;20.10;73.50
27072;DHT22;14613;46.308;25.288;2023-07-02T03:39:26;20.30;73.10
27072;DHT22;14613;46.308;25.288;2023-07-02T03:41:52;20.60;72.90
27072;DHT22;14613;46.308;25.288;2023-07-02T03:44:17;21.00;73.40
27072;DHT22;14613;46.308;25.288;2023-07-02T03:46:45;21.30;72.00
27072;DHT22;14613;46.308;25.288;2023-07-02T03:49:11;21.60;71.50
27072;DHT22;14613;46.308;25.288;2023-07-02T03:51:36;22.00;71.20
27072;DHT22;14613;46.308;25.288;2023-07-02T03:54:02;22.30;70.70
27072;DHT22;14613;46.308;25.288;2023-07-02T03:56:28;22.70;69.90
27072;DHT22;14613;46.308;25.288;2023-07-02T03:58:53;22.90;69.00
27072;DHT22;14613;46.308;25.288;2023-07-02T04:01:19;23.10;68.70
27072;DHT22;14613;46.308;25.288;2023-07-02T04:03:52;23.40;68.60
27072;DHT22;14613;46.308;25.288;2023-07-02T04:06:18;23.60;67.80
27072;DHT22;14613;46.308;25.288;2023-07-02T04:08:44;23.70;67.30
27072;DHT22;14613;46.308;25.288;2023-07-02T04:11:11;23.90;67.20
27072;DHT22;14613;46.308;25.288;2023-07-02T04:13:37;23.90;66.60
27072;DHT22;14613;46.308;25.288;2023-07-02T04:16:03;24.00;66.30
27072;DHT22;14613;46.308;25.288;2023-07-02T04:18:29;24.00;65.60
27072;DHT22;14613;46.308;25.288;2023-07-02T04:20:55;24.00;65.40
27072;DHT22;14613;46.308;25.288;2023-07-02T04:23:21;23.90;65.40
27072;DHT22;14613;46.308;25.288;2023-07-02T04:25:46;23.80;65.50
27072;DHT22;14613;46.308;25.288;2023-07-02T04:28:12;23.80;65.70
27072;DHT22;14613;46.308;25.288;2023-07-02T04:30:38;23.90;66.70
27072;DHT22;14613;46.308;25.288;2023-07-02T04:33:04;24.10;65.60
27072;DHT22;14613;46.308;25.288;2023-07-02T04:35:31;24.30;65.40
27072;DHT22;14613;46.308;25.288;2023-07-02T04:37:57;24.50;66.00
27072;DHT22;14613;46.308;25.288;2023-07-02T04:40:24;24.80;64.70
27072;DHT22;14613;46.308;25.288;2023-07-02T04:42:49;25.00;64.30
27072;DHT22;14613;46.308;25.288;2023-07-02T04:45:23;25.40;64.20
27072;DHT22;14613;46.308;25.288;2023-07-02T04:47:49;25.70;63.60
27072;DHT22;14613;46.308;25.288;2023-07-02T04:50:16;26.10;62.90
27072;DHT22;14613;46.308;25.288;2023-07-02T04:52:42;26.30;62.10
27072;DHT22;14613;46.308;25.288;2023-07-02T04:55:08;26.40;61.70
27072;DHT22;14613;46.308;25.288;2023-07-02T04:57:33;26.50;61.40
27072;DHT22;14613;46.308;25.288;2023-07-02T04:59:59;26.60;61.30
27072;DHT22;14613;46.308;25.288;2023-07-02T05:02:25;26.70;61.10
27072;DHT22;14613;46.308;25.288;2023-07-02T05:04:51;26.80;61.10
27072;DHT22;14613;46.308;25.288;2023-07-02T05:07:17;27.10;61.10
27072;DHT22;14613;46.308;25.288;2023-07-02T05:09:42;27.50;60.80
27072;DHT22;14613;46.308;25.288;2023-07-02T05:12:09;27.70;59.90
27072;DHT22;14613;46.308;25.288;2023-07-02T05:14:34;27.70;59.10
27072;DHT22;14613;46.308;25.288;2023-07-02T05:17:00;27.70;58.90
27072;DHT22;14613;46.308;25.288;2023-07-02T05:19:26;27.60;58.80
27072;DHT22;14613;46.308;25.288;2023-07-02T05:21:52;27.50;58.70
27072;DHT22;14613;46.308;25.288;2023-07-02T05:24:18;27.50;58.80
27072;DHT22;14613;46.308;25.288;2023-07-02T05:26:44;27.50;58.80
27072;DHT22;14613;46.308;25.288;2023-07-02T05:29:10;27.40;58.60
27072;DHT22;14613;46.308;25.288;2023-07-02T05:31:35;27.30;58.40
27072;DHT22;14613;46.308;25.288;2023-07-02T05:34:01;27.10;58.30
27072;DHT22;14613;46.308;25.288;2023-07-02T05:36:27;26.90;58.40
27072;DHT22;14613;46.308;25.288;2023-07-02T05:38:53;26.70;58.50
27072;DHT22;14613;46.308;25.288;2023-07-02T05:41:19;26.50;58.50
27072;DHT22;14613;46.308;25.288;2023-07-02T05:43:45;26.30;58.80
27072;DHT22;14613;46.308;25.288;2023-07-02T05:46:11;26.20;59.00
27072;DHT22;14613;46.308;25.288;2023-07-02T05:48:41;26.20;59.30
27072;DHT22;14613;46.308;25.288;2023-07-02T05:51:08;26.30;59.50
27072;DHT22;14613;46.308;25.288;2023-07-02T05:53:34;26.70;59.60
27072;DHT22;14613;46.308;25.288;2023-07-02T05:55:59;27.20;59.30
27072;DHT22;14613;46.308;25.288;2023-07-02T05:58:25;27.80;58.60
27072;DHT22;14613;46.308;25.288;2023-07-02T06:00:51;28.20;57.90
27072;DHT22;14613;46.308;25.288;2023-07-02T06:03:17;28.40;57.50
27072;DHT22;14613;46.308;25.288;2023-07-02T06:05:49;28.70;57.20
27072;DHT22;14613;46.308;25.288;2023-07-02T06:08:15;29.00;57.00
27072;DHT22;14613;46.308;25.288;2023-07-02T06:10:42;29.20;56.70
27072;DHT22;14613;46.308;25.288;2023-07-02T06:13:07;29.40;56.10
27072;DHT22;14613;46.308;25.288;2023-07-02T06:15:33;29.40;55.70
27072;DHT22;14613;46.308;25.288;2023-07-02T06:17:59;29.50;55.60
27072;DHT22;14613;46.308;25.288;2023-07-02T06:20:24;29.50;55.70
27072;DHT22;14613;46.308;25.288;2023-07-02T06:22:50;29.80;55.80
27072;DHT22;14613;46.308;25.288;2023-07-02T06:25:16;29.90;55.60
27072;DHT22;14613;46.308;25.288;2023-07-02T06:27:42;30.00;55.40
27072;DHT22;14613;46.308;25.288;2023-07-02T06:30:08;30.20;55.40
27072;DHT22;14613;46.308;25.288;2023-07-02T06:32:33;30.40;55.30
27072;DHT22;14613;46.308;25.288;2023-07-02T06:34:59;30.70;55.10
27072;DHT22;14613;46.308;25.288;2023-07-02T06:37:25;30.90;54.80
27072;DHT22;14613;46.308;25.288;2023-07-02T06:39:51;31.10;54.60
27072;DHT22;14613;46.308;25.288;2023-07-02T06:42:17;31.40;54.60
27072;DHT22;14613;46.308;25.288;2023-07-02T06:44:43;31.70;54.10
27072;DHT22;14613;46.308;25.288;2023-07-02T06:47:08;32.00;53.80
27072;DHT22;14613;46.308;25.288;2023-07-02T06:49:34;32.20;53.50
27072;DHT22;14613;46.308;25.288;2023-07-02T06:52:00;32.50;53.30
27072;DHT22;14613;46.308;25.288;2023-07-02T06:54:26;32.70;52.70
27072;DHT22;14613;46.308;25.288;2023-07-02T06:56:52;32.70;53.10
27072;DHT22;14613;46.308;25.288;2023-07-02T06:59:21;32.80;52.50
27072;DHT22;14613;46.308;25.288;2023-07-02T07:01:47;33.00;52.50
27072;DHT22;14613;46.308;25.288;2023-07-02T07:04:13;33.20;52.40
27072;DHT22;14613;46.308;25.288;2023-07-02T07:06:39;33.40;52.20
27072;DHT22;14613;46.308;25.288;2023-07-02T07:09:04;33.50;52.00
27072;DHT22;14613;46.308;25.288;2023-07-02T07:11:30;33.70;51.80
27072;DHT22;14613;46.308;25.288;2023-07-02T07:13:56;33.80;51.50
27072;DHT22;14613;46.308;25.288;2023-07-02T07:16:21;33.80;51.10
27072;DHT22;14613;46.308;25.288;2023-07-02T07:18:48;33.60;50.90
27072;DHT22;14613;46.308;25.288;2023-07-02T07:21:13;33.30;50.90
27072;DHT22;14613;46.308;25.288;2023-07-02T07:23:40;33.30;51.30
27072;DHT22;14613;46.308;25.288;2023-07-02T07:26:06;33.40;51.40
27072;DHT22;14613;46.308;25.288;2023-07-02T07:28:32;33.40;51.30
27072;DHT22;14613;46.308;25.288;2023-07-02T07:30:57;33.40;50.80
27072;DHT22;14613;46.308;25.288;2023-07-02T07:33:23;33.20;50.80
27072;DHT22;14613;46.308;25.288;2023-07-02T07:35:49;32.90;51.00
27072;DHT22;14613;46.308;25.288;2023-07-02T07:38:15;32.80;51.30
27072;DHT22;14613;46.308;25.288;2023-07-02T07:40:42;32.80;52.20
27072;DHT22;14613;46.308;25.288;2023-07-02T07:43:08;32.90;51.70
27072;DHT22;14613;46.308;25.288;2023-07-02T07:45:34;33.10;51.70
27072;DHT22;14613;46.308;25.288;2023-07-02T07:48:01;33.20;51.70
27072;DHT22;14613;46.308;25.288;2023-07-02T07:50:26;33.40;51.70
27072;DHT22;14613;46.308;25.288;2023-07-02T07:52:52;33.70;51.50
27072;DHT22;14613;46.308;25.288;2023-07-02T07:55:18;33.90;51.40
27072;DHT22;14613;46.308;25.288;2023-07-02T07:57:44;34.00;51.10
27072;DHT22;14613;46.308;25.288;2023-07-02T08:00:10;34.20;50.90
27072;DHT22;14613;46.308;25.288;2023-07-02T08:02:36;34.20;50.60
27072;DHT22;14613;46.308;25.288;2023-07-02T08:05:02;34.30;51.30
27072;DHT22;14613;46.308;25.288;2023-07-02T08:07:28;34.30;50.50
27072;DHT22;14613;46.308;25.288;2023-07-02T08:09:54;34.40;50.50
27072;DHT22;14613;46.308;25.288;2023-07-02T08:12:20;34.60;50.50
27072;DHT22;14613;46.308;25.288;2023-07-02T08:14:45;34.70;50.20
27072;DHT22;14613;46.308;25.288;2023-07-02T08:17:11;34.80;50.00
27072;DHT22;14613;46.308;25.288;2023-07-02T08:19:37;34.80;49.80
27072;DHT22;14613;46.308;25.288;2023-07-02T08:22:03;34.80;49.80
27072;DHT22;14613;46.308;25.288;2023-07-02T08:24:29;34.80;49.70
27072;DHT22;14613;46.308;25.288;2023-07-02T08:26:57;34.70;49.60
27072;DHT22;14613;46.308;25.288;2023-07-02T08:29:23;34.60;49.40
27072;DHT22;14613;46.308;25.288;2023-07-02T08:31:49;34.40;49.30
27072;DHT22;14613;46.308;25.288;2023-07-02T08:34:14;34.30;49.50
27072;DHT22;14613;46.308;25.288;2023-07-02T08:36:40;34.20;49.70
27072;DHT22;14613;46.308;25.288;2023-07-02T08:39:09;34.20;49.80
27072;DHT22;14613;46.308;25.288;2023-07-02T08:41:46;34.30;49.70
27072;DHT22;14613;46.308;25.288;2023-07-02T08:44:12;34.00;49.40
27072;DHT22;14613;46.308;25.288;2023-07-02T08:46:40;33.80;49.70
27072;DHT22;14613;46.308;25.288;2023-07-02T08:49:07;33.40;50.90
27072;DHT22;14613;46.308;25.288;2023-07-02T08:51:33;33.50;50.70
27072;DHT22;14613;46.308;25.288;2023-07-02T08:53:59;33.90;50.60
27072;DHT22;14613;46.308;25.288;2023-07-02T08:56:24;34.20;50.30
27072;DHT22;14613;46.308;25.288;2023-07-02T08:58:52;34.30;50.00
27072;DHT22;14613;46.308;25.288;2023-07-02T09:01:19;34.30;49.70
27072;DHT22;14613;46.308;25.288;2023-07-02T09:03:45;34.10;49.70
27072;DHT22;14613;46.308;25.288;2023-07-02T09:06:11;34.10;50.00
27072;DHT22;14613;46.308;25.288;2023-07-02T09:08:38;34.30;50.20
27072;DHT22;14613;46.308;25.288;2023-07-02T09:11:14;34.50;50.00
27072;DHT22;14613;46.308;25.288;2023-07-02T09:13:49;34.80;49.90
27072;DHT22;14613;46.308;25.288;2023-07-02T09:16:23;34.90;49.70
27072;DHT22;14613;46.308;25.288;2023-07-02T09:19:00;35.00;49.80
27072;DHT22;14613;46.308;25.288;2023-07-02T09:21:37;35.20;49.90
27072;DHT22;14613;46.308;25.288;2023-07-02T09:24:12;35.40;49.90
27072;DHT22;14613;46.308;25.288;2023-07-02T09:26:38;35.60;49.50
27072;DHT22;14613;46.308;25.288;2023-07-02T09:29:06;35.70;49.50
27072;DHT22;14613;46.308;25.288;2023-07-02T09:31:43;35.80;49.50
27072;DHT22;14613;46.308;25.288;2023-07-02T09:34:09;35.90;49.30
27072;DHT22;14613;46.308;25.288;2023-07-02T09:36:35;36.00;49.20
27072;DHT22;14613;46.308;25.288;2023-07-02T09:39:13;36.20;49.10
27072;DHT22;14613;46.308;25.288;2023-07-02T09:41:42;36.20;48.50
27072;DHT22;14613;46.308;25.288;2023-07-02T09:44:09;36.10;48.50
27072;DHT22;14613;46.308;25.288;2023-07-02T09:46:37;36.10;48.50
27072;DHT22;14613;46.308;25.288;2023-07-02T09:49:05;36.20;48.60
27072;DHT22;14613;46.308;25.288;2023-07-02T09:51:32;36.20;48.50
27072;DHT22;14613;46.308;25.288;2023-07-02T09:53:58;36.30;48.60
27072;DHT22;14613;46.308;25.288;2023-07-02T09:56:24;36.30;48.30
27072;DHT22;14613;46.308;25.288;2023-07-02T09:58:50;36.30;48.10
27072;DHT22;14613;46.308;25.288;2023-07-02T10:01:16;36.30;48.00
27072;DHT22;14613;46.308;25.288;2023-07-02T10:03:42;36.30;48.10
27072;DHT22;14613;46.308;25.288;2023-07-02T10:06:08;36.40;48.00
27072;DHT22;14613;46.308;25.288;2023-07-02T10:08:34;36.50;48.00
27072;DHT22;14613;46.308;25.288;2023-07-02T10:11:15;36.50;47.90
27072;DHT22;14613;46.308;25.288;2023-07-02T10:13:41;36.60;47.80
27072;DHT22;14613;46.308;25.288;2023-07-02T10:16:07;36.40;47.60
27072;DHT22;14613;46.308;25.288;2023-07-02T10:18:33;36.30;47.60
27072;DHT22;14613;46.308;25.288;2023-07-02T10:20:59;36.00;47.60
27072;DHT22;14613;46.308;25.288;2023-07-02T10:23:35;35.90;47.70
27072;DHT22;14613;46.308;25.288;2023-07-02T10:26:15;35.70;47.80
27072;DHT22;14613;46.308;25.288;2023-07-02T10:28:42;35.60;47.90
27072;DHT22;14613;46.308;25.288;2023-07-02T10:31:20;35.40;48.00
27072;DHT22;14613;46.308;25.288;2023-07-02T10:33:47;35.30;48.40
27072;DHT22;14613;46.308;25.288;2023-07-02T10:36:24;35.40;48.50
27072;DHT22;14613;46.308;25.288;2023-07-02T10:38:51;35.50;48.40
27072;DHT22;14613;46.308;25.288;2023-07-02T10:41:28;35.70;48.30
27072;DHT22;14613;46.308;25.288;2023-07-02T10:44:08;35.80;48.30
27072;DHT22;14613;46.308;25.288;2023-07-02T10:46:34;35.90;48.20
27072;DHT22;14613;46.308;25.288;2023-07-02T10:49:00;35.90;48.10
27072;DHT22;14613;46.308;25.288;2023-07-02T10:51:26;36.00;48.10
27072;DHT22;14613;46.308;25.288;2023-07-02T10:54:01;36.00;48.00
27072;DHT22;14613;46.308;25.288;2023-07-02T10:56:28;36.10;48.00
27072;DHT22;14613;46.308;25.288;2023-07-02T10:58:54;36.10;48.00
27072;DHT22;14613;46.308;25.288;2023-07-02T11:01:28;36.20;47.90
27072;DHT22;14613;46.308;25.288;2023-07-02T11:04:01;36.30;47.80
27072;DHT22;14613;46.308;25.288;2023-07-02T11:06:28;36.40;47.70
27072;DHT22;14613;46.308;25.288;2023-07-02T11:08:54;36.50;47.60
27072;DHT22;14613;46.308;25.288;2023-07-02T11:11:23;36.60;47.60
27072;DHT22;14613;46.308;25.288;2023-07-02T11:13:50;36.60;47.40
27072;DHT22;14613;46.308;25.288;2023-07-02T11:16:24;36.60;47.30
27072;DHT22;14613;46.308;25.288;2023-07-02T11:19:08;36.60;47.10
27072;DHT22;14613;46.308;25.288;2023-07-02T11:21:35;36.50;47.00
27072;DHT22;14613;46.308;25.288;2023-07-02T11:24:02;36.40;47.10
27072;DHT22;14613;46.308;25.288;2023-07-02T11:26:38;36.40;47.30
27072;DHT22;14613;46.308;25.288;2023-07-02T11:29:06;36.10;47.30
27072;DHT22;14613;46.308;25.288;2023-07-02T11:31:33;35.90;47.40
27072;DHT22;14613;46.308;25.288;2023-07-02T11:33:59;35.70;47.50
27072;DHT22;14613;46.308;25.288;2023-07-02T11:36:24;35.60;47.80
27072;DHT22;14613;46.308;25.288;2023-07-02T11:38:51;35.50;48.00
27072;DHT22;14613;46.308;25.288;2023-07-02T11:41:18;35.40;48.10
27072;DHT22;14613;46.308;25.288;2023-07-02T11:43:44;35.30;48.10
27072;DHT22;14613;46.308;25.288;2023-07-02T11:46:09;35.30;48.20
27072;DHT22;14613;46.308;25.288;2023-07-02T11:48:35;35.20;48.10
27072;DHT22;14613;46.308;25.288;2023-07-02T11:51:01;35.10;48.10
27072;DHT22;14613;46.308;25.288;2023-07-02T11:53:26;35.00;48.20
27072;DHT22;14613;46.308;25.288;2023-07-02T11:55:52;35.10;48.70
27072;DHT22;14613;46.308;25.288;2023-07-02T11:58:18;35.10;48.40
27072;DHT22;14613;46.308;25.288;2023-07-02T12:00:43;35.20;48.40
27072;DHT22;14613;46.308;25.288;2023-07-02T12:03:10;35.30;48.30
27072;DHT22;14613;46.308;25.288;2023-07-02T12:05:36;35.40;48.20
27072;DHT22;14613;46.308;25.288;2023-07-02T12:08:02;35.50;48.10
27072;DHT22;14613;46.308;25.288;2023-07-02T12:10:28;35.50;48.00
27072;DHT22;14613;46.308;25.288;2023-07-02T12:12:54;35.40;47.90
27072;DHT22;14613;46.308;25.288;2023-07-02T12:15:19;35.20;48.00
27072;DHT22;14613;46.308;25.288;2023-07-02T12:17:45;35.10;48.20
27072;DHT22;14613;46.308;25.288;2023-07-02T12:20:11;34.90;48.40
27072;DHT22;14613;46.308;25.288;2023-07-02T12:22:37;34.70;48.60
27072;DHT22;14613;46.308;25.288;2023-07-02T12:25:03;34.50;48.80
27072;DHT22;14613;46.308;25.288;2023-07-02T12:27:29;34.40;48.90
27072;DHT22;14613;46.308;25.288;2023-07-02T12:29:56;34.20;49.00
27072;DHT22;14613;46.308;25.288;2023-07-02T12:32:21;34.20;49.20
27072;DHT22;14613;46.308;25.288;2023-07-02T12:34:47;34.00;49.30
27072;DHT22;14613;46.308;25.288;2023-07-02T12:37:13;33.80;49.30
27072;DHT22;14613;46.308;25.288;2023-07-02T12:39:42;33.70;49.50
27072;DHT22;14613;46.308;25.288;2023-07-02T12:42:08;33.60;49.70
27072;DHT22;14613;46.308;25.288;2023-07-02T12:44:34;33.50;49.80
27072;DHT22;14613;46.308;25.288;2023-07-02T12:47:00;33.40;49.90
27072;DHT22;14613;46.308;25.288;2023-07-02T12:49:26;33.40;50.00
27072;DHT22;14613;46.308;25.288;2023-07-02T12:51:51;33.30;50.00
27072;DHT22;14613;46.308;25.288;2023-07-02T12:54:17;33.40;50.20
27072;DHT22;14613;46.308;25.288;2023-07-02T12:56:43;33.40;50.10
27072;DHT22;14613;46.308;25.288;2023-07-02T12:59:09;33.40;50.10
27072;DHT22;14613;46.308;25.288;2023-07-02T13:01:34;33.30;50.10
27072;DHT22;14613;46.308;25.288;2023-07-02T13:04:00;33.20;50.10
27072;DHT22;14613;46.308;25.288;2023-07-02T13:06:27;33.10;50.20
27072;DHT22;14613;46.308;25.288;2023-07-02T13:08:53;33.00;50.20
27072;DHT22;14613;46.308;25.288;2023-07-02T13:11:21;33.00;50.40
27072;DHT22;14613;46.308;25.288;2023-07-02T13:13:47;32.90;50.50
27072;DHT22;14613;46.308;25.288;2023-07-02T13:16:13;32.80;50.60
27072;DHT22;14613;46.308;25.288;2023-07-02T13:18:38;32.80;50.70
27072;DHT22;14613;46.308;25.288;2023-07-02T13:21:04;32.70;50.70
27072;DHT22;14613;46.308;25.288;2023-07-02T13:23:30;32.60;50.80
27072;DHT22;14613;46.308;25.288;2023-07-02T13:25:55;32.60;50.90
27072;DHT22;14613;46.308;25.288;2023-07-02T13:28:21;32.50;51.10
27072;DHT22;14613;46.308;25.288;2023-07-02T13:30:47;32.40;51.20
27072;DHT22;14613;46.308;25.288;2023-07-02T13:33:13;32.30;51.30
27072;DHT22;14613;46.308;25.288;2023-07-02T13:35:38;32.30;51.40
27072;DHT22;14613;46.308;25.288;2023-07-02T13:38:04;32.20;51.50
27072;DHT22;14613;46.308;25.288;2023-07-02T13:40:30;32.20;51.70
27072;DHT22;14613;46.308;25.288;2023-07-02T13:42:56;32.10;51.80
27072;DHT22;14613;46.308;25.288;2023-07-02T13:45:22;32.10;51.90
27072;DHT22;14613;46.308;25.288;2023-07-02T13:47:47;32.00;51.90
27072;DHT22;14613;46.308;25.288;2023-07-02T13:50:13;31.90;52.10
27072;DHT22;14613;46.308;25.288;2023-07-02T13:52:39;31.90;52.10
27072;DHT22;14613;46.308;25.288;2023-07-02T13:55:05;31.90;52.20
27072;DHT22;14613;46.308;25.288;2023-07-02T13:57:31;31.90;52.30
27072;DHT22;14613;46.308;25.288;2023-07-02T13:59:56;31.70;52.30
27072;DHT22;14613;46.308;25.288;2023-07-02T14:02:23;31.60;52.50
27072;DHT22;14613;46.308;25.288;2023-07-02T14:04:49;31.40;52.60
27072;DHT22;14613;46.308;25.288;2023-07-02T14:07:15;31.30;52.80
27072;DHT22;14613;46.308;25.288;2023-07-02T14:09:40;31.20;52.90
27072;DHT22;14613;46.308;25.288;2023-07-02T14:12:06;31.10;53.00
27072;DHT22;14613;46.308;25.288;2023-07-02T14:14:32;31.00;53.20
27072;DHT22;14613;46.308;25.288;2023-07-02T14:16:58;31.10;53.30
27072;DHT22;14613;46.308;25.288;2023-07-02T14:19:23;31.10;53.50
27072;DHT22;14613;46.308;25.288;2023-07-02T14:21:49;31.10;53.50
27072;DHT22;14613;46.308;25.288;2023-07-02T14:24:15;31.20;53.50
27072;DHT22;14613;46.308;25.288;2023-07-02T14:26:42;31.10;53.40
27072;DHT22;14613;46.308;25.288;2023-07-02T14:29:09;31.10;53.40
27072;DHT22;14613;46.308;25.288;2023-07-02T14:31:35;31.10;53.40
27072;DHT22;14613;46.308;25.288;2023-07-02T14:34:00;31.10;53.30
27072;DHT22;14613;46.308;25.288;2023-07-02T14:36:26;31.10;53.10
27072;DHT22;14613;46.308;25.288;2023-07-02T14:38:52;31.00;52.70
27072;DHT22;14613;46.308;25.288;2023-07-02T14:41:17;30.90;52.80
27072;DHT22;14613;46.308;25.288;2023-07-02T14:43:43;31.00;53.00
27072;DHT22;14613;46.308;25.288;2023-07-02T14:46:09;31.00;53.10
27072;DHT22;14613;46.308;25.288;2023-07-02T14:48:35;31.00;53.00
27072;DHT22;14613;46.308;25.288;2023-07-02T14:51:02;31.10;52.90
27072;DHT22;14613;46.308;25.288;2023-07-02T14:53:29;31.20;52.70
27072;DHT22;14613;46.308;25.288;2023-07-02T14:55:57;31.20;52.50
27072;DHT22;14613;46.308;25.288;2023-07-02T14:58:23;31.20;52.20
27072;DHT22;14613;46.308;25.288;2023-07-02T15:00:51;31.20;52.10
27072;DHT22;14613;46.308;25.288;2023-07-02T15:03:18;31.10;51.90
27072;DHT22;14613;46.308;25.288;2023-07-02T15:05:46;31.10;51.90
27072;DHT22;14613;46.308;25.288;2023-07-02T15:08:12;30.90;51.80
27072;DHT22;14613;46.308;25.288;2023-07-02T15:10:39;30.90;51.90
27072;DHT22;14613;46.308;25.288;2023-07-02T15:13:06;30.80;51.90